Time;durP1;ratioP1;P1;durP2;ratioP2;P2;SDS_P1;SDS_P2;PMS_P1;PMS_P2;Temp;Humidity;BMP_temperature;BMP_pressure;BME280_temperature;BME280_humidity;BME280_pressure;Samples;Min_cycle;Max_cycle;Signal;HPM_P1;HPM_P2
2024/01/22 00:02:20;;;;;;;8.23;2.95;;;7.70;99.90;;;;;;5032325;28;20025;-89
2024/01/22 00:04:46;;;;;;;6.15;2.05;;;7.70;99.90;;;;;;5015374;28;20563;-89
2024/01/22 00:07:12;;;;;;;5.93;1.80;;;7.70;99.90;;;;;;5031614;28;20124;-89
2024/01/22 00:09:37;;;;;;;4.63;1.67;;;7.70;99.90;;;;;;5031374;28;20033;-90
2024/01/22 00:12:03;;;;;;;5.85;1.80;;;7.80;99.90;;;;;;5015383;28;20069;-89
2024/01/22 00:14:29;;;;;;;11.70;2.40;;;7.80;99.90;;;;;;5049242;28;20075;-89
2024/01/22 00:16:54;;;;;;;5.60;2.13;;;7.80;99.90;;;;;;5015717;28;20037;-89
2024/01/22 00:19:20;;;;;;;4.57;1.95;;;7.90;99.90;;;;;;5031941;28;20090;-89
2024/01/22 00:21:45;;;;;;;6.35;2.00;;;7.90;99.90;;;;;;5049519;28;20036;-89
2024/01/22 00:24:11;;;;;;;3.25;1.58;;;7.90;99.90;;;;;;5015237;28;20083;-89
2024/01/22 00:26:37;;;;;;;4.50;1.65;;;8.00;99.90;;;;;;5031953;28;20036;-90
2024/01/22 00:29:02;;;;;;;6.28;1.70;;;8.00;99.90;;;;;;5049282;28;20032;-88
2024/01/22 00:31:29;;;;;;;5.47;1.67;;;8.00;99.90;;;;;;5031681;28;20484;-89
2024/01/22 00:33:54;;;;;;;4.80;1.83;;;8.00;99.90;;;;;;5031460;28;20044;-89
2024/01/22 00:36:20;;;;;;;7.28;1.90;;;8.00;99.90;;;;;;5015411;28;20111;-90
2024/01/22 00:38:46;;;;;;;6.13;2.28;;;8.00;99.90;;;;;;5031298;28;20512;-90
2024/01/22 00:41:11;;;;;;;9.50;2.42;;;8.00;99.90;;;;;;5032674;28;20420;-89
2024/01/22 00:43:37;;;;;;;6.72;2.20;;;8.00;99.90;;;;;;5031270;28;20063;-90
2024/01/22 00:46:03;;;;;;;5.03;1.55;;;8.00;99.90;;;;;;5032006;28;21023;-90
2024/01/22 00:48:29;;;;;;;3.97;1.60;;;8.00;99.90;;;;;;5050626;28;20036;-90
2024/01/22 00:50:55;;;;;;;5.28;1.70;;;8.00;99.90;;;;;;5016534;28;20045;-89
2024/01/22 00:53:20;;;;;;;4.97;1.52;;;8.10;99.90;;;;;;5035211;28;20052;-90
2024/01/22 00:55:46;;;;;;;5.40;1.52;;;8.10;99.90;;;;;;5049234;28;20033;-89
2024/01/22 00:58:12;;;;;;;4.65;1.65;;;8.10;99.90;;;;;;5048285;28;20033;-90
2024/01/22 01:00:37;;;;;;;6.47;2.00;;;8.10;99.90;;;;;;5049146;28;20041;-90
2024/01/22 01:03:03;;;;;;;5.03;1.77;;;8.20;99.90;;;;;;5014458;28;20033;-90
2024/01/22 01:05:29;;;;;;;4.53;1.70;;;8.20;99.90;;;;;;5031039;28;20045;-90
2024/01/22 01:07:54;;;;;;;5.13;1.98;;;8.30;99.90;;;;;;5014789;28;20033;-89
2024/01/22 01:10:20;;;;;;;6.03;1.95;;;8.20;99.90;;;;;;5014140;28;20037;-88
2024/01/22 01:12:46;;;;;;;5.97;2.08;;;8.30;99.90;;;;;;5014750;28;20068;-90
2024/01/22 01:15:12;;;;;;;4.18;1.33;;;8.40;99.90;;;;;;5015015;28;20538;-90
2024/01/22 01:17:37;;;;;;;5.97;1.95;;;8.40;99.90;;;;;;5031119;28;20580;-90
2024/01/22 01:20:04;;;;;;;3.83;1.42;;;8.40;99.90;;;;;;5014482;28;20511;-90
2024/01/22 01:22:33;;;;;;;4.50;1.60;;;8.50;99.90;;;;;;5014371;28;20033;-90
2024/01/22 01:24:59;;;;;;;5.70;1.45;;;8.60;99.90;;;;;;5014187;28;20056;-90
2024/01/22 01:27:25;;;;;;;4.50;1.50;;;8.60;99.90;;;;;;5013844;28;20033;-91
2024/01/22 01:29:52;;;;;;;5.30;1.77;;;8.70;99.90;;;;;;5014303;28;20029;-90
2024/01/22 01:32:17;;;;;;;6.40;1.92;;;8.70;99.90;;;;;;5030671;28;20416;-90
2024/01/22 01:34:43;;;;;;;5.80;1.77;;;8.70;99.90;;;;;;5047687;28;20053;-91
2024/01/22 01:37:09;;;;;;;3.80;1.70;;;8.70;99.90;;;;;;5030694;28;20033;-91
2024/01/22 01:39:34;;;;;;;5.60;2.03;;;8.80;99.90;;;;;;5030384;28;20041;-91
2024/01/22 01:42:00;;;;;;;9.27;2.00;;;8.80;99.90;;;;;;5029847;28;20043;-91
2024/01/22 01:44:38;;;;;;;3.92;1.73;;;8.80;99.90;;;;;;5030861;28;20036;-90
2024/01/22 01:47:04;;;;;;;5.82;1.83;;;8.80;99.90;;;;;;5031579;28;20082;-91
2024/01/22 01:49:30;;;;;;;6.20;2.17;;;8.90;99.90;;;;;;5028600;28;20033;-91
2024/01/22 01:51:57;;;;;;;3.70;1.67;;;8.90;99.90;;;;;;5030639;28;20051;-91
2024/01/22 01:54:25;;;;;;;6.82;1.67;;;8.90;99.90;;;;;;5013843;28;20075;-92
2024/01/22 01:56:51;;;;;;;3.95;1.60;;;8.90;99.90;;;;;;5014326;28;20091;-92
2024/01/22 01:59:18;;;;;;;9.15;2.03;;;8.80;99.90;;;;;;5014021;28;20036;-92
2024/01/22 02:01:43;;;;;;;5.10;1.88;;;8.80;99.90;;;;;;5030798;28;20037;-91
2024/01/22 02:04:09;;;;;;;7.65;2.03;;;8.80;99.90;;;;;;5030739;28;20040;-92
2024/01/22 02:06:35;;;;;;;7.00;2.00;;;8.70;99.90;;;;;;5030347;28;20515;-91
2024/01/22 02:09:00;;;;;;;7.13;2.15;;;8.80;99.90;;;;;;5014170;28;20037;-91
2024/01/22 02:11:26;;;;;;;6.60;1.88;;;8.70;99.90;;;;;;5033870;28;20033;-92
2024/01/22 02:13:52;;;;;;;6.32;2.35;;;8.70;99.90;;;;;;5017385;28;20071;-91
2024/01/22 02:16:18;;;;;;;4.00;1.85;;;8.70;99.90;;;;;;5034020;28;20083;-91
2024/01/22 02:18:45;;;;;;;12.52;2.50;;;8.70;99.90;;;;;;5033731;28;20036;-90
2024/01/22 02:21:10;;;;;;;5.07;2.22;;;8.60;99.90;;;;;;5034481;28;20080;-90
2024/01/22 02:23:36;;;;;;;5.78;1.73;;;8.60;99.90;;;;;;5018416;28;20514;-90
2024/01/22 02:26:02;;;;;;;4.00;1.35;;;8.50;99.90;;;;;;5018737;28;20076;-91
2024/01/22 02:28:28;;;;;;;3.08;1.23;;;8.50;99.90;;;;;;5018064;28;20064;-91
2024/01/22 02:30:54;;;;;;;7.28;1.98;;;8.50;99.90;;;;;;5018012;28;20036;-90
2024/01/22 02:33:20;;;;;;;4.63;1.40;;;8.50;99.90;;;;;;5018037;28;20497;-90
2024/01/22 02:35:45;;;;;;;4.40;1.70;;;8.50;99.90;;;;;;5033966;28;20036;-90
2024/01/22 02:38:11;;;;;;;6.15;1.95;;;8.50;99.90;;;;;;5017822;28;20134;-90
2024/01/22 02:40:36;;;;;;;6.78;2.30;;;8.50;99.90;;;;;;5034659;28;20040;-90
2024/01/22 02:43:02;;;;;;;7.63;1.85;;;8.50;99.90;;;;;;5034223;28;20060;-90
2024/01/22 02:45:28;;;;;;;4.22;1.77;;;8.60;99.90;;;;;;5034527;28;20500;-89
2024/01/22 02:47:53;;;;;;;4.35;1.30;;;8.50;99.90;;;;;;5018383;28;20458;-89
2024/01/22 02:50:19;;;;;;;6.55;1.95;;;8.50;99.90;;;;;;5017527;28;20464;-87
2024/01/22 02:52:44;;;;;;;4.78;1.65;;;8.50;99.90;;;;;;5033886;28;20071;-87
2024/01/22 02:55:10;;;;;;;6.63;1.90;;;8.50;99.90;;;;;;5018221;28;20041;-87
2024/01/22 02:57:35;;;;;;;6.97;2.10;;;8.60;99.90;;;;;;5017624;28;20112;-89
2024/01/22 03:00:02;;;;;;;3.22;1.10;;;8.60;99.90;;;;;;5017613;28;20068;-89
2024/01/22 03:02:27;;;;;;;4.85;1.38;;;8.60;99.90;;;;;;5033857;28;20048;-89
2024/01/22 03:04:53;;;;;;;3.50;1.35;;;8.70;99.90;;;;;;5051742;28;20037;-89
2024/01/22 03:07:19;;;;;;;2.50;1.15;;;8.70;99.90;;;;;;5033813;28;20552;-89
2024/01/22 03:09:44;;;;;;;6.75;1.92;;;8.80;99.90;;;;;;5017459;28;20056;-89
2024/01/22 03:12:10;;;;;;;6.38;2.03;;;8.80;99.90;;;;;;5019331;28;20102;-89
2024/01/22 03:14:36;;;;;;;3.17;1.20;;;8.80;99.90;;;;;;5019506;28;20412;-88
2024/01/22 03:17:02;;;;;;;4.45;1.45;;;8.70;99.90;;;;;;5035431;28;20033;-89
2024/01/22 03:19:28;;;;;;;8.93;1.65;;;8.80;99.90;;;;;;5020237;28;20615;-88
2024/01/22 03:21:53;;;;;;;5.60;2.03;;;8.70;99.90;;;;;;5023855;28;20067;-88
2024/01/22 03:24:20;;;;;;;5.15;1.70;;;8.80;99.90;;;;;;5034316;28;20091;-88
2024/01/22 03:26:46;;;;;;;5.70;2.25;;;8.80;99.90;;;;;;5019031;28;20048;-88
2024/01/22 03:29:11;;;;;;;4.57;1.50;;;8.70;99.90;;;;;;5035834;28;20039;-88
2024/01/22 03:31:37;;;;;;;4.57;1.88;;;8.70;99.90;;;;;;5017602;28;20037;-89
2024/01/22 03:34:03;;;;;;;4.25;1.70;;;8.70;99.90;;;;;;5051564;28;20032;-89
2024/01/22 03:36:29;;;;;;;2.50;1.13;;;8.70;99.90;;;;;;5033184;28;20711;-89
2024/01/22 03:38:55;;;;;;;4.97;1.40;;;8.70;99.90;;;;;;5051479;28;20040;-89
2024/01/22 03:41:20;;;;;;;7.70;2.00;;;8.70;99.90;;;;;;5051247;28;20033;-88
2024/01/22 03:43:46;;;;;;;5.25;1.75;;;8.70;99.90;;;;;;5033115;28;20115;-88
2024/01/22 03:46:13;;;;;;;3.45;1.42;;;8.70;99.90;;;;;;5050736;28;20671;-89
2024/01/22 03:48:39;;;;;;;4.55;1.58;;;8.70;99.90;;;;;;5033139;28;20033;-89
2024/01/22 03:51:05;;;;;;;4.40;1.70;;;8.70;99.90;;;;;;5016419;28;20460;-89
2024/01/22 03:53:31;;;;;;;4.30;1.48;;;8.70;99.90;;;;;;5016627;28;20527;-88
2024/01/22 03:55:56;;;;;;;2.78;1.17;;;8.70;99.90;;;;;;5016635;28;20065;-89
2024/01/22 03:58:22;;;;;;;2.55;0.98;;;8.70;99.90;;;;;;5033271;28;20084;-89
2024/01/22 04:00:48;;;;;;;5.03;2.03;;;8.70;99.90;;;;;;5016151;28;20120;-88
2024/01/22 04:03:13;;;;;;;5.65;1.80;;;8.80;99.90;;;;;;5032642;28;20120;-88
2024/01/22 04:05:39;;;;;;;5.57;1.92;;;8.80;99.90;;;;;;5016165;28;20067;-88
2024/01/22 04:08:05;;;;;;;3.17;1.30;;;8.80;99.90;;;;;;5032561;28;20130;-89
2024/01/22 04:10:31;;;;;;;3.67;1.30;;;8.90;99.90;;;;;;5016170;28;20025;-89
2024/01/22 04:12:57;;;;;;;4.63;1.77;;;8.90;99.90;;;;;;5032351;28;20060;-89
2024/01/22 04:15:25;;;;;;;4.70;1.48;;;8.90;99.90;;;;;;5016189;28;20040;-89
2024/01/22 04:17:51;;;;;;;4.55;1.38;;;9.00;99.90;;;;;;5031997;28;20112;-89
2024/01/22 04:20:16;;;;;;;4.53;1.92;;;9.00;99.90;;;;;;5032192;28;20707;-89
2024/01/22 04:22:42;;;;;;;3.50;1.45;;;9.00;99.90;;;;;;5031200;28;20041;-89
2024/01/22 04:25:08;;;;;;;2.97;1.38;;;9.00;99.90;;;;;;5015288;28;20041;-89
2024/01/22 04:27:34;;;;;;;3.78;1.50;;;9.00;99.90;;;;;;5015888;28;20040;-89
2024/01/22 04:30:00;;;;;;;4.18;1.25;;;9.00;99.90;;;;;;5032157;28;20527;-89
2024/01/22 04:32:25;;;;;;;5.28;1.52;;;9.00;99.90;;;;;;5030190;28;20124;-89
2024/01/22 04:34:52;;;;;;;2.92;1.23;;;9.00;99.90;;;;;;5049376;28;20040;-90
2024/01/22 04:37:18;;;;;;;3.30;1.30;;;9.10;99.90;;;;;;5015597;28;20037;-89
2024/01/22 04:39:43;;;;;;;4.25;1.48;;;9.10;99.90;;;;;;5031812;28;20047;-89
2024/01/22 04:42:09;;;;;;;2.13;0.90;;;9.10;99.90;;;;;;5014464;28;20029;-90
2024/01/22 04:44:35;;;;;;;3.03;1.02;;;9.10;99.90;;;;;;5031107;28;20037;-89
2024/01/22 04:47:02;;;;;;;2.25;0.95;;;9.10;99.90;;;;;;5031627;28;20047;-90
2024/01/22 04:49:28;;;;;;;4.15;1.52;;;9.10;99.90;;;;;;5014788;28;20033;-90
2024/01/22 04:51:54;;;;;;;3.00;1.13;;;9.10;99.90;;;;;;5049228;28;20032;-90
2024/01/22 04:54:20;;;;;;;10.00;2.05;;;9.10;99.90;;;;;;5031422;28;20037;-89
2024/01/22 04:56:47;;;;;;;4.30;1.23;;;9.20;99.90;;;;;;5031138;28;20040;-90
2024/01/22 04:59:13;;;;;;;4.25;1.33;;;9.10;99.90;;;;;;5015109;28;20033;-89
2024/01/22 05:01:40;;;;;;;2.85;1.23;;;9.30;99.90;;;;;;5014759;28;20519;-89
2024/01/22 05:04:06;;;;;;;5.80;1.35;;;9.20;99.90;;;;;;5014222;28;20029;-89
2024/01/22 05:06:32;;;;;;;2.80;1.17;;;9.30;99.90;;;;;;5014353;28;20029;-89
2024/01/22 05:08:57;;;;;;;3.17;1.20;;;9.30;99.90;;;;;;5030973;28;20029;-89
2024/01/22 05:11:24;;;;;;;3.17;1.35;;;9.40;99.90;;;;;;5030834;28;20032;-88
2024/01/22 05:13:54;;;;;;;2.63;0.90;;;9.40;99.90;;;;;;5048250;28;20044;-88
2024/01/22 05:16:21;;;;;;;3.47;1.10;;;9.40;99.90;;;;;;5030609;28;20517;-89
2024/01/22 05:18:48;;;;;;;2.40;0.90;;;9.50;99.90;;;;;;5030532;28;20045;-88
2024/01/22 05:21:14;;;;;;;4.65;1.77;;;9.60;99.90;;;;;;5014520;28;20365;-88
2024/01/22 05:23:40;;;;;;;3.03;0.95;;;9.70;99.90;;;;;;5014005;28;20036;-88
2024/01/22 05:26:06;;;;;;;1.15;0.70;;;9.70;99.90;;;;;;5028927;28;20037;-88
2024/01/22 05:28:32;;;;;;;2.95;1.10;;;9.80;99.90;;;;;;5014208;28;20107;-88
2024/01/22 05:30:59;;;;;;;3.33;1.05;;;9.80;99.90;;;;;;5048387;28;20033;-88
2024/01/22 05:33:24;;;;;;;3.05;1.10;;;9.80;99.90;;;;;;5030478;28;20037;-88
2024/01/22 05:35:50;;;;;;;1.77;0.80;;;9.90;99.90;;;;;;5030778;28;20386;-88
2024/01/22 05:38:16;;;;;;;3.70;1.42;;;9.90;99.90;;;;;;5014200;28;20072;-88
2024/01/22 05:40:41;;;;;;;1.55;0.70;;;10.00;99.90;;;;;;5030342;28;20076;-88
2024/01/22 05:43:08;;;;;;;3.40;1.10;;;10.00;99.90;;;;;;5029974;28;20032;-88
2024/01/22 05:45:33;;;;;;;3.05;0.90;;;10.10;99.90;;;;;;5047856;28;20079;-88
2024/01/22 05:47:59;;;;;;;3.03;1.05;;;10.10;99.90;;;;;;5048629;28;20513;-89
2024/01/22 05:50:24;;;;;;;2.40;1.13;;;10.20;99.90;;;;;;5014888;28;20052;-89
2024/01/22 05:52:50;;;;;;;1.60;0.93;;;10.10;99.90;;;;;;5015582;28;20435;-89
2024/01/22 05:55:16;;;;;;;3.13;1.02;;;10.20;99.90;;;;;;5034567;28;20045;-88
2024/01/22 05:57:41;;;;;;;2.63;1.02;;;10.20;99.90;;;;;;5034329;28;20043;-88
2024/01/22 06:00:13;;;;;;;1.58;0.82;;;10.20;99.90;;;;;;5048208;28;20731;-88
2024/01/22 06:02:40;;;;;;;1.75;0.60;;;10.30;99.90;;;;;;5048006;28;20488;-89
2024/01/22 06:05:06;;;;;;;2.60;0.93;;;10.30;99.90;;;;;;5047887;28;20083;-88
2024/01/22 06:07:31;;;;;;;3.50;1.05;;;10.40;99.90;;;;;;5030307;28;20056;-89
2024/01/22 06:09:57;;;;;;;1.27;0.90;;;10.40;99.90;;;;;;5013790;28;20037;-88
2024/01/22 06:12:23;;;;;;;3.17;0.90;;;10.40;99.90;;;;;;5013185;28;20040;-89
2024/01/22 06:14:48;;;;;;;3.80;1.20;;;10.40;99.90;;;;;;5013158;28;20032;-88
2024/01/22 06:17:14;;;;;;;3.08;0.95;;;10.40;99.90;;;;;;5030171;28;20045;-89
2024/01/22 06:19:39;;;;;;;1.83;1.00;;;10.40;99.90;;;;;;5013795;28;20099;-89
2024/01/22 06:22:05;;;;;;;3.95;0.88;;;10.40;99.90;;;;;;5029885;28;20514;-89
2024/01/22 06:24:34;;;;;;;3.28;1.10;;;10.40;99.90;;;;;;5013192;28;20083;-89
2024/01/22 06:27:00;;;;;;;4.60;1.30;;;10.40;99.90;;;;;;5047778;28;20468;-89
2024/01/22 06:29:26;;;;;;;2.92;1.13;;;10.40;99.90;;;;;;5030180;28;20060;-89
2024/01/22 06:31:51;;;;;;;1.45;0.75;;;10.40;99.90;;;;;;5029934;28;20037;-89
2024/01/22 06:34:17;;;;;;;3.45;1.20;;;10.40;99.90;;;;;;5047152;28;20036;-90
2024/01/22 06:36:42;;;;;;;4.32;1.73;;;10.40;99.90;;;;;;5029462;28;20504;-89
2024/01/22 06:39:08;;;;;;;3.50;1.20;;;10.50;99.90;;;;;;5029711;28;20437;-88
2024/01/22 06:41:37;;;;;;;3.03;0.77;;;10.40;99.90;;;;;;5013567;28;20025;-88
2024/01/22 06:44:04;;;;;;;3.85;1.10;;;10.40;99.90;;;;;;5012426;28;20049;-89
2024/01/22 06:46:29;;;;;;;1.83;0.90;;;10.40;99.90;;;;;;5029070;28;20040;-90
2024/01/22 06:48:55;;;;;;;4.22;1.05;;;10.50;99.90;;;;;;5013330;28;20036;-90
2024/01/22 06:51:22;;;;;;;5.55;1.02;;;10.50;99.90;;;;;;5029893;28;20033;-90
2024/01/22 06:53:48;;;;;;;2.15;0.70;;;10.50;99.90;;;;;;5029080;28;20120;-89
2024/01/22 06:56:13;;;;;;;2.30;0.70;;;10.60;99.90;;;;;;5015914;28;20132;-89
2024/01/22 06:58:39;;;;;;;6.72;1.20;;;10.60;99.90;;;;;;5033048;28;20029;-89
2024/01/22 07:01:05;;;;;;;1.40;0.73;;;10.70;99.90;;;;;;5033562;28;20033;-89
2024/01/22 07:03:31;;;;;;;2.00;0.75;;;10.60;99.90;;;;;;5032915;28;20033;-89
2024/01/22 07:05:56;;;;;;;1.95;0.73;;;10.60;99.90;;;;;;5017567;28;20048;-88
2024/01/22 07:08:22;;;;;;;1.27;0.63;;;10.70;99.90;;;;;;5016334;28;20033;-88
2024/01/22 07:10:51;;;;;;;2.05;0.65;;;10.70;99.90;;;;;;5015975;28;20076;-89
2024/01/22 07:13:16;;;;;;;4.63;1.10;;;10.70;99.90;;;;;;5020492;28;20060;-90
2024/01/22 07:15:42;;;;;;;5.78;1.90;;;10.80;99.90;;;;;;5037548;28;20033;-89
2024/01/22 07:18:08;;;;;;;3.90;1.08;;;10.80;99.90;;;;;;5039768;28;20037;-89
2024/01/22 07:20:34;;;;;;;5.93;0.85;;;10.90;99.90;;;;;;5034285;28;20056;-87
2024/01/22 07:23:00;;;;;;;3.90;0.98;;;10.90;99.90;;;;;;5016296;28;20481;-87
2024/01/22 07:25:26;;;;;;;9.75;1.08;;;10.90;99.90;;;;;;5016074;28;20408;-88
2024/01/22 07:27:52;;;;;;;2.65;1.05;;;11.00;99.90;;;;;;5032519;28;20033;-87
2024/01/22 07:30:17;;;;;;;7.18;1.63;;;10.90;99.90;;;;;;5016420;28;20102;-87
2024/01/22 07:32:43;;;;;;;5.60;0.80;;;11.00;99.90;;;;;;5016027;28;20223;-89
2024/01/22 07:35:11;;;;;;;12.85;1.88;;;11.00;99.90;;;;;;5015967;28;20076;-89
2024/01/22 07:37:40;;;;;;;8.32;3.10;;;11.00;99.90;;;;;;5035766;28;20033;-88
2024/01/22 07:40:09;;;;;;;5.13;1.02;;;11.10;99.90;;;;;;5014515;28;20048;-88
2024/01/22 07:42:36;;;;;;;5.70;1.25;;;11.10;99.90;;;;;;5050225;28;20033;-88
2024/01/22 07:45:03;;;;;;;8.20;1.35;;;11.10;99.90;;;;;;5014340;28;20041;-88
2024/01/22 07:47:29;;;;;;;4.60;1.42;;;11.20;99.90;;;;;;5014792;28;20037;-88
2024/01/22 07:49:55;;;;;;;8.90;1.67;;;11.20;99.90;;;;;;5016601;28;20090;-88
2024/01/22 07:52:21;;;;;;;11.05;1.52;;;11.20;99.90;;;;;;5034568;28;20638;-88
2024/01/22 07:54:48;;;;;;;10.13;2.22;;;11.20;99.90;;;;;;5032443;28;20089;-88
2024/01/22 07:57:14;;;;;;;5.53;1.35;;;11.20;99.90;;;;;;5016571;28;20420;-88
2024/01/22 07:59:40;;;;;;;7.57;1.52;;;11.20;99.90;;;;;;5034887;28;20040;-88
2024/01/22 08:02:06;;;;;;;4.57;1.20;;;11.30;99.90;;;;;;5034591;28;20101;-89
2024/01/22 08:04:33;;;;;;;6.45;1.73;;;11.30;99.90;;;;;;5050291;28;20479;-88
2024/01/22 08:07:00;;;;;;;7.07;1.67;;;11.20;99.90;;;;;;5031811;28;20067;-88
2024/01/22 08:09:27;;;;;;;5.20;0.80;;;11.20;99.90;;;;;;5015663;28;20489;-87
2024/01/22 08:11:52;;;;;;;3.50;1.13;;;11.20;99.90;;;;;;5015694;28;20075;-88
2024/01/22 08:14:18;;;;;;;9.50;1.63;;;11.10;99.90;;;;;;5015665;28;20075;-87
2024/01/22 08:16:45;;;;;;;6.57;1.40;;;11.10;99.90;;;;;;5016143;28;20491;-88
2024/01/22 08:19:11;;;;;;;1.45;0.50;;;11.00;99.90;;;;;;5016545;28;20059;-88
2024/01/22 08:21:37;;;;;;;8.10;1.40;;;11.00;99.90;;;;;;5021895;28;20033;-88
2024/01/22 08:24:03;;;;;;;4.38;1.02;;;11.00;99.90;;;;;;5033560;28;20044;-88
2024/01/22 08:26:28;;;;;;;4.68;0.98;;;10.90;99.90;;;;;;5038808;28;20484;-88
2024/01/22 08:28:54;;;;;;;13.02;3.40;;;11.00;99.90;;;;;;5033068;28;20044;-87
2024/01/22 08:31:20;;;;;;;4.07;1.10;;;11.00;99.90;;;;;;5015788;28;20084;-88
2024/01/22 08:33:45;;;;;;;5.45;1.20;;;11.00;99.90;;;;;;5015550;28;20037;-88
2024/01/22 08:36:11;;;;;;;7.78;1.38;;;11.00;99.90;;;;;;5031369;28;20064;-88
2024/01/22 08:38:37;;;;;;;3.55;1.23;;;11.00;99.90;;;;;;5015193;28;20086;-88
2024/01/22 08:41:08;;;;;;;7.32;0.82;;;11.00;99.90;;;;;;5015150;28;20064;-88
2024/01/22 08:43:33;;;;;;;4.57;1.33;;;11.00;99.90;;;;;;5031640;28;20041;-89
2024/01/22 08:45:59;;;;;;;5.00;1.08;;;11.00;99.90;;;;;;5014989;28;20616;-88
2024/01/22 08:48:25;;;;;;;3.95;0.77;;;10.90;99.90;;;;;;5031786;28;20548;-89
2024/01/22 08:50:51;;;;;;;5.57;1.42;;;10.90;99.90;;;;;;5031661;28;20120;-88
2024/01/22 08:53:17;;;;;;;5.00;1.17;;;10.90;99.90;;;;;;5014541;28;20132;-89
2024/01/22 08:55:42;;;;;;;4.78;1.80;;;10.90;99.90;;;;;;5031012;28;20111;-89
2024/01/22 08:58:09;;;;;;;4.05;0.95;;;10.90;99.90;;;;;;5041296;28;20507;-89
2024/01/22 09:00:35;;;;;;;1.85;0.45;;;10.90;99.90;;;;;;5020147;28;20041;-88
2024/01/22 09:03:02;;;;;;;8.93;1.33;;;10.90;99.90;;;;;;5017311;28;20544;-90
2024/01/22 09:05:28;;;;;;;2.42;0.75;;;10.80;99.90;;;;;;5033511;28;20068;-88
2024/01/22 09:07:54;;;;;;;3.42;0.93;;;10.90;99.90;;;;;;5033625;28;20110;-88
2024/01/22 09:10:21;;;;;;;4.95;1.02;;;10.90;99.90;;;;;;5015671;28;20044;-87
2024/01/22 09:12:48;;;;;;;3.65;0.82;;;10.90;99.90;;;;;;5029595;28;20039;-88
2024/01/22 09:15:17;;;;;;;7.35;1.42;;;10.90;99.90;;;;;;5048683;28;20033;-87
2024/01/22 09:17:46;;;;;;;6.03;1.33;;;10.90;99.90;;;;;;5017653;28;20032;-88
2024/01/22 09:20:12;;;;;;;5.90;1.13;;;10.90;99.90;;;;;;5047624;28;21730;-87
2024/01/22 09:22:38;;;;;;;5.20;0.70;;;10.90;99.90;;;;;;5015784;28;20033;-87
2024/01/22 09:25:05;;;;;;;5.97;0.98;;;10.90;99.90;;;;;;5033244;28;20036;-87
2024/01/22 09:27:31;;;;;;;4.35;1.25;;;10.90;99.90;;;;;;5015644;28;20037;-88
2024/01/22 09:29:58;;;;;;;5.68;1.05;;;10.90;99.90;;;;;;5030166;28;20029;-87
2024/01/22 09:32:25;;;;;;;6.57;0.80;;;10.90;99.90;;;;;;5029793;28;20473;-87
2024/01/22 09:34:51;;;;;;;7.47;1.40;;;10.90;99.90;;;;;;5013559;28;20080;-87
2024/01/22 09:37:17;;;;;;;7.32;1.77;;;10.90;99.90;;;;;;5028079;28;21477;-87
2024/01/22 09:39:44;;;;;;;6.00;1.23;;;10.80;99.90;;;;;;5030571;28;20064;-87
2024/01/22 09:42:14;;;;;;;12.63;1.83;;;10.80;99.90;;;;;;5030064;28;20095;-87
2024/01/22 09:44:40;;;;;;;8.07;1.33;;;10.80;99.90;;;;;;5031558;28;20427;-87
2024/01/22 09:47:08;;;;;;;6.85;1.83;;;10.80;99.90;;;;;;5046894;28;20048;-88
2024/01/22 09:49:34;;;;;;;6.00;1.50;;;10.80;99.90;;;;;;5013150;28;20048;-87
2024/01/22 09:52:01;;;;;;;10.25;2.25;;;10.80;99.90;;;;;;5029367;28;20108;-88
2024/01/22 09:54:29;;;;;;;9.73;1.83;;;10.80;99.90;;;;;;5046441;28;20040;-88
2024/01/22 09:56:56;;;;;;;14.55;2.38;;;10.80;99.90;;;;;;5010126;28;20118;-88
2024/01/22 09:59:23;;;;;;;16.67;2.67;;;10.80;99.90;;;;;;5028682;28;20543;-88
2024/01/22 10:01:50;;;;;;;12.35;2.97;;;10.80;99.90;;;;;;5046010;28;20056;-88
2024/01/22 10:04:16;;;;;;;15.15;3.22;;;10.80;99.90;;;;;;5012161;28;20041;-87
2024/01/22 10:06:44;;;;;;;17.83;2.53;;;10.80;99.90;;;;;;5012523;28;20047;-88
2024/01/22 10:09:10;;;;;;;15.20;2.20;;;10.80;99.90;;;;;;5012014;28;20044;-88
2024/01/22 10:11:36;;;;;;;15.80;3.20;;;10.80;99.90;;;;;;5031570;28;20033;-87
2024/01/22 10:14:01;;;;;;;13.80;2.90;;;10.80;99.90;;;;;;5013611;28;20041;-87
2024/01/22 10:16:31;;;;;;;20.13;3.38;;;10.80;99.90;;;;;;5044572;28;20519;-88
2024/01/22 10:19:08;;;;;;;11.75;2.72;;;10.80;99.90;;;;;;5046787;28;20518;-87
2024/01/22 10:21:35;;;;;;;10.95;2.45;;;10.90;99.90;;;;;;5044358;28;20072;-87
2024/01/22 10:24:07;;;;;;;10.98;3.85;;;10.90;99.90;;;;;;5028520;28;20049;-88
2024/01/22 10:26:35;;;;;;;12.88;2.30;;;10.90;99.90;;;;;;5029760;28;20041;-88
2024/01/22 10:29:22;;;;;;;9.65;3.08;;;10.80;99.90;;;;;;5012261;28;20037;-88
2024/01/22 10:31:55;;;;;;;18.85;3.03;;;10.80;99.90;;;;;;5016089;28;20037;-88
2024/01/22 10:34:23;;;;;;;14.77;2.70;;;10.80;99.90;;;;;;5032470;28;20033;-88
2024/01/22 10:37:08;;;;;;;15.13;2.90;;;10.80;99.90;;;;;;5018106;28;20037;-88
2024/01/22 10:39:35;;;;;;;19.67;3.15;;;10.80;99.90;;;;;;5017196;28;20420;-88
2024/01/22 10:42:17;;;;;;;14.93;2.83;;;10.80;99.90;;;;;;5025364;28;20048;-88
2024/01/22 10:44:47;;;;;;;16.00;3.70;;;10.80;99.90;;;;;;5036821;28;20045;-88
2024/01/22 10:47:16;;;;;;;21.20;3.63;;;10.80;99.90;;;;;;5018312;28;20048;-88
2024/01/22 10:49:43;;;;;;;8.00;1.83;;;10.80;99.90;;;;;;5049884;28;20114;-88
2024/01/22 10:52:09;;;;;;;16.65;4.50;;;10.80;99.90;;;;;;5019614;28;20048;-87
2024/01/22 10:54:36;;;;;;;24.48;6.97;;;10.70;99.90;;;;;;5019388;28;20048;-87
2024/01/22 10:57:18;;;;;;;12.80;2.55;;;10.70;99.90;;;;;;5020421;28;20565;-87
2024/01/22 10:59:48;;;;;;;11.63;2.80;;;10.70;99.90;;;;;;5050831;28;20049;-87
2024/01/22 11:02:34;;;;;;;16.10;3.30;;;10.70;99.90;;;;;;5057143;28;20069;-87
2024/01/22 11:05:21;;;;;;;19.17;4.05;;;10.70;99.90;;;;;;5034036;28;20032;-87
2024/01/22 11:07:49;;;;;;;17.10;2.45;;;10.70;99.90;;;;;;5036371;28;20041;-87
2024/01/22 11:10:15;;;;;;;8.43;2.20;;;10.70;99.90;;;;;;5053683;28;20037;-87
2024/01/22 11:12:51;;;;;;;14.52;2.55;;;10.70;99.90;;;;;;5055612;28;20036;-87
2024/01/22 11:15:16;;;;;;;21.77;3.50;;;10.70;99.90;;;;;;5053992;28;20056;-87
2024/01/22 11:17:43;;;;;;;11.57;3.03;;;10.80;99.90;;;;;;5036714;28;20040;-87
2024/01/22 11:20:21;;;;;;;17.77;3.95;;;10.90;99.90;;;;;;5036162;28;20080;-87
2024/01/22 11:23:04;;;;;;;17.45;2.90;;;11.00;99.90;;;;;;5035173;28;20048;-87
2024/01/22 11:25:32;;;;;;;15.98;3.08;;;11.10;99.90;;;;;;5020849;28;20044;-88
2024/01/22 11:28:24;;;;;;;20.23;3.50;;;11.10;99.90;;;;;;5032791;28;20055;-87
2024/01/22 11:30:50;;;;;;;15.85;2.92;;;11.20;99.90;;;;;;5016345;28;20052;-88
2024/01/22 11:33:25;;;;;;;16.35;3.20;;;11.10;99.90;;;;;;5033469;28;20033;-87
2024/01/22 11:35:50;;;;;;;14.52;2.45;;;11.10;99.90;;;;;;5035556;28;20261;-87
2024/01/22 11:38:42;;;;;;;13.60;2.30;;;11.10;99.90;;;;;;5016312;28;20603;-87
2024/01/22 11:41:08;;;;;;;14.85;3.15;;;11.20;99.90;;;;;;5010245;28;20090;-88
2024/01/22 11:43:33;;;;;;;11.45;2.53;;;11.20;99.90;;;;;;5031543;28;20381;-87
2024/01/22 11:46:14;;;;;;;16.83;3.25;;;11.30;99.90;;;;;;5030370;28;20554;-87
2024/01/22 11:48:39;;;;;;;16.63;3.55;;;11.30;99.90;;;;;;5031971;28;20045;-88
2024/01/22 11:51:05;;;;;;;11.88;2.53;;;11.30;99.90;;;;;;5032661;28;20585;-88
2024/01/22 11:53:31;;;;;;;7.75;2.10;;;11.30;99.90;;;;;;5013936;28;20052;-88
2024/01/22 11:56:04;;;;;;;30.58;8.00;;;11.30;99.90;;;;;;5045745;28;20033;-88
2024/01/22 11:58:31;;;;;;;20.10;2.42;;;11.30;99.90;;;;;;5030132;28;20044;-87
2024/01/22 12:00:58;;;;;;;14.57;2.97;;;11.20;99.90;;;;;;5013680;28;20041;-88
2024/01/22 12:03:28;;;;;;;10.90;2.78;;;11.00;99.90;;;;;;5012963;28;20036;-88
2024/01/22 12:06:02;;;;;;;13.00;2.83;;;10.90;99.90;;;;;;5048412;28;20048;-88
2024/01/22 12:08:28;;;;;;;14.75;3.00;;;10.80;99.90;;;;;;5049004;28;20029;-88
2024/01/22 12:11:06;;;;;;;11.02;2.25;;;10.70;99.90;;;;;;5011235;28;20072;-87
2024/01/22 12:13:33;;;;;;;9.40;1.85;;;10.70;99.90;;;;;;5014797;28;20037;-88
2024/01/22 12:15:58;;;;;;;15.00;2.30;;;10.70;99.90;;;;;;5048031;28;20041;-86
2024/01/22 12:18:25;;;;;;;13.95;2.05;;;10.70;99.90;;;;;;5048862;28;20037;-87
2024/01/22 12:20:51;;;;;;;6.70;1.55;;;10.80;99.90;;;;;;5029963;28;20072;-87
2024/01/22 12:23:34;;;;;;;7.28;1.95;;;10.90;99.90;;;;;;5029281;28;20034;-87
2024/01/22 12:26:01;;;;;;;12.27;1.85;;;10.90;99.90;;;;;;5010734;28;20036;-87
2024/01/22 12:28:26;;;;;;;9.82;2.22;;;10.80;99.90;;;;;;5014305;28;20065;-87
2024/01/22 12:31:02;;;;;;;11.20;2.78;;;10.90;99.90;;;;;;5014375;28;20061;-85
2024/01/22 12:33:33;;;;;;;8.48;2.45;;;10.90;99.90;;;;;;5031762;28;20053;-87
2024/01/22 12:36:08;;;;;;;5.28;1.50;;;10.90;99.90;;;;;;5047693;28;20044;-89
2024/01/22 12:38:36;;;;;;;7.80;2.25;;;10.80;99.90;;;;;;5047338;28;20508;-89
2024/01/22 12:41:08;;;;;;;11.45;1.98;;;10.70;99.90;;;;;;5030045;28;20095;-89
2024/01/22 12:43:35;;;;;;;11.75;1.83;;;10.60;99.90;;;;;;5014051;28;20471;-89
2024/01/22 12:46:11;;;;;;;11.18;1.88;;;10.50;99.90;;;;;;5030397;28;20468;-89
2024/01/22 12:48:37;;;;;;;10.00;1.92;;;10.40;99.90;;;;;;5014198;28;20103;-89